createdAt,value
2023-04-13T00:04:23.486Z,0.10
2023-04-13T00:09:26.070Z,0.20
2023-04-13T00:14:34.104Z,0.20
2023-04-13T00:19:38.114Z,0.10
2023-04-13T00:24:40.360Z,0.20
2023-04-13T00:29:42.584Z,0.20
2023-04-13T00:34:47.123Z,0.20
2023-04-13T00:39:49.392Z,0.20
2023-04-13T00:44:52.168Z,0.20
2023-04-13T00:49:57.076Z,0.10
2023-04-13T00:54:59.434Z,0.27
2023-04-13T01:00:08.082Z,0.30
2023-04-13T01:05:15.680Z,0.30
2023-04-13T01:10:23.832Z,0.37
2023-04-13T01:15:27.806Z,0.10
2023-04-13T01:20:33.936Z,0.20
2023-04-13T01:25:41.867Z,0.10
2023-04-13T01:30:46.633Z,0.10
2023-04-13T01:35:48.958Z,0.10
2023-04-13T01:40:52.023Z,0.30
2023-04-13T01:46:04.260Z,0.20
2023-04-13T01:51:11.277Z,0.10
2023-04-13T01:56:15.576Z,0.20
2023-04-13T02:01:19.040Z,0.20
2023-04-13T02:06:21.287Z,0.10
2023-04-13T02:11:23.419Z,0.20
2023-04-13T02:16:27.004Z,0.27
2023-04-13T02:21:29.358Z,0.30
2023-04-13T02:26:31.250Z,0.13
2023-04-13T02:31:35.633Z,0.20
2023-04-13T02:36:38.431Z,0.20
2023-04-13T02:41:43.405Z,0.20
2023-04-13T02:46:47.278Z,0.30
2023-04-13T02:51:49.249Z,0.20
2023-04-13T02:56:51.257Z,0.40
2023-04-13T03:01:59.013Z,0.30
2023-04-13T03:07:05.295Z,0.40
2023-04-13T03:12:09.352Z,0.50
2023-04-13T03:17:13.088Z,0.40
2023-04-13T03:22:16.135Z,0.40
2023-04-13T03:27:18.687Z,0.50
2023-04-13T03:32:22.586Z,0.63
2023-04-13T03:37:29.526Z,0.40
2023-04-13T03:42:32.239Z,0.30
2023-04-13T03:47:35.877Z,0.30
2023-04-13T03:52:38.140Z,0.60
2023-04-13T03:57:40.085Z,0.60
2023-04-13T04:02:44.281Z,0.40
2023-04-13T04:07:46.738Z,0.50
2023-04-13T04:12:48.838Z,0.60
2023-04-13T04:17:52.579Z,1.00
2023-04-13T04:22:54.961Z,0.40
2023-04-13T04:27:57.938Z,0.63
2023-04-13T04:33:02.700Z,0.63
2023-04-13T04:38:05.444Z,0.73
2023-04-13T04:43:07.919Z,0.40
2023-04-13T04:48:11.556Z,0.60
2023-04-13T04:53:13.960Z,0.70
2023-04-13T04:58:17.183Z,0.60
2023-04-13T05:03:21.297Z,0.53
2023-04-13T05:08:23.714Z,0.43
2023-04-13T05:13:25.804Z,0.60
2023-04-13T05:18:32.929Z,0.80
2023-04-13T05:23:34.956Z,0.50
2023-04-13T05:28:37.154Z,0.60
2023-04-13T05:33:40.322Z,1.10
2023-04-13T05:38:43.077Z,1.07
2023-04-13T05:43:46.382Z,0.67
2023-04-13T05:48:49.931Z,0.50
2023-04-13T05:53:52.487Z,0.70
2023-04-13T05:58:54.836Z,0.57
2023-04-13T06:03:58.791Z,0.60
2023-04-13T06:09:01.629Z,0.80
2023-04-13T06:14:03.997Z,0.70
2023-04-13T06:19:07.870Z,0.90
2023-04-13T06:24:10.196Z,0.60
2023-04-13T06:29:12.649Z,0.60
2023-04-13T06:34:16.362Z,0.63
2023-04-13T06:39:18.960Z,0.60
2023-04-13T06:44:21.224Z,0.70
2023-04-13T06:49:25.182Z,0.40
2023-04-13T06:54:27.583Z,0.60
2023-04-13T06:59:29.804Z,0.50
2023-04-13T07:04:34.211Z,0.60
2023-04-13T07:09:36.872Z,0.60
2023-04-13T07:14:41.098Z,0.67
2023-04-13T07:19:48.164Z,0.70
2023-04-13T07:24:50.294Z,1.00
2023-04-13T07:29:53.062Z,0.87
2023-04-13T07:35:01.488Z,0.90
2023-04-13T07:40:04.805Z,1.03
2023-04-13T07:45:08.331Z,0.90
2023-04-13T07:50:13.534Z,1.10
2023-04-13T07:55:16.220Z,1.10
2023-04-13T08:00:20.770Z,1.03
2023-04-13T08:05:24.897Z,1.10
2023-04-13T08:10:27.454Z,0.90
2023-04-13T08:15:29.559Z,1.00
2023-04-13T08:20:34.104Z,1.00
2023-04-13T08:25:40.943Z,1.40
2023-04-13T08:30:43.300Z,0.83
2023-04-13T08:35:46.587Z,0.77
2023-04-13T08:40:50.261Z,0.90
2023-04-13T08:45:52.928Z,1.03
2023-04-13T08:50:59.700Z,1.00
2023-04-13T08:56:03.223Z,0.70
2023-04-13T09:01:06.807Z,0.60
2023-04-13T09:06:13.315Z,0.80
2023-04-13T09:11:15.564Z,0.70
2023-04-13T09:16:18.096Z,0.57
2023-04-13T09:21:22.642Z,0.33
2023-04-13T09:26:24.653Z,0.70
2023-04-13T09:31:26.999Z,1.37
2023-04-13T09:36:32.743Z,0.60
2023-04-13T09:41:36.669Z,0.73
2023-04-13T09:46:39.150Z,0.50
2023-04-13T09:51:43.293Z,0.80
2023-04-13T09:56:53.037Z,0.67
2023-04-13T10:01:55.908Z,0.40
2023-04-13T10:06:59.700Z,0.60
2023-04-13T10:12:02.235Z,0.50
2023-04-13T10:17:23.338Z,0.63
2023-04-13T10:22:27.254Z,0.57
2023-04-13T10:27:29.556Z,0.60
2023-04-13T10:32:32.307Z,0.50
2023-04-13T10:37:36.221Z,0.87
2023-04-13T10:47:49.283Z,0.40
2023-04-13T10:53:05.093Z,0.50
2023-04-13T10:58:18.458Z,0.60
2023-04-13T11:03:20.636Z,0.40
2023-04-13T11:08:24.515Z,0.80
2023-04-13T11:13:27.073Z,0.60
2023-04-13T11:18:29.311Z,0.70
2023-04-13T11:23:34.893Z,0.90
2023-04-13T11:28:41.953Z,0.97
2023-04-13T11:33:44.769Z,0.90
2023-04-13T11:38:49.840Z,1.43
2023-04-13T11:43:52.458Z,0.50
2023-04-13T11:48:55.061Z,0.60
2023-04-13T11:53:59.855Z,0.40
2023-04-13T11:59:02.348Z,0.60
2023-04-13T12:04:14.600Z,0.70
2023-04-13T12:09:22.158Z,0.70
2023-04-13T12:19:32.998Z,0.57
2023-04-13T12:24:39.506Z,0.67
2023-04-13T12:29:42.504Z,0.30
2023-04-13T12:34:45.635Z,0.70
2023-04-13T12:39:49.404Z,0.67
2023-04-13T12:44:51.831Z,0.67
2023-04-13T12:49:53.906Z,0.70
2023-04-13T12:54:57.765Z,0.63
2023-04-13T13:00:00.216Z,0.63
2023-04-13T13:05:01.988Z,0.50
2023-04-13T13:10:14.990Z,0.60
2023-04-13T13:15:28.514Z,0.60
2023-04-13T13:20:30.410Z,0.60
2023-04-13T13:25:35.534Z,0.50
2023-04-13T13:30:38.944Z,0.40
2023-04-13T13:35:41.082Z,0.77
2023-04-13T13:40:44.290Z,0.80
2023-04-13T13:45:46.281Z,0.63
2023-04-13T13:50:48.292Z,0.60
2023-04-13T13:55:52.091Z,0.67
2023-04-13T14:00:56.019Z,0.50
2023-04-13T14:05:57.982Z,0.60
2023-04-13T14:11:01.726Z,0.30
2023-04-13T14:16:03.893Z,0.50
2023-04-13T14:21:06.643Z,0.50
2023-04-13T14:26:10.466Z,0.60
2023-04-13T14:31:14.764Z,0.70
2023-04-13T14:36:17.205Z,0.73
2023-04-13T14:41:21.409Z,0.67
2023-04-13T14:46:23.704Z,0.60
2023-04-13T14:51:27.467Z,0.50
2023-04-13T14:56:31.134Z,0.67
2023-04-13T15:01:34.144Z,0.70
2023-04-13T15:06:36.433Z,0.53
2023-04-13T15:11:40.408Z,0.63
2023-04-13T15:16:42.805Z,0.70
2023-04-13T15:21:44.943Z,1.10
2023-04-13T15:26:50.170Z,0.40
2023-04-13T15:31:52.788Z,0.40
2023-04-13T15:36:55.943Z,0.57
2023-04-13T15:42:00.645Z,0.50
2023-04-13T15:47:03.284Z,0.60
2023-04-13T15:52:05.654Z,0.70
2023-04-13T15:57:10.608Z,0.60
2023-04-13T16:02:13.450Z,0.40
2023-04-13T16:07:15.864Z,0.60
2023-04-13T16:12:20.365Z,0.40
2023-04-13T16:17:31.718Z,0.60
2023-04-13T16:22:35.701Z,0.70
2023-04-13T16:27:41.893Z,0.43
2023-04-13T16:32:44.898Z,0.50
2023-04-13T16:37:47.241Z,1.30
2023-04-13T16:42:52.028Z,0.67
2023-04-13T16:47:55.268Z,1.30
2023-04-13T16:52:57.646Z,1.50
2023-04-13T16:58:01.410Z,0.70
2023-04-13T17:03:03.670Z,0.67
2023-04-13T17:08:08.486Z,0.80
2023-04-13T17:13:12.402Z,0.80
2023-04-13T17:18:15.978Z,1.10
2023-04-13T17:23:18.281Z,0.90
2023-04-13T17:28:24.950Z,1.00
2023-04-13T17:33:29.568Z,1.00
2023-04-13T17:38:33.032Z,1.03
2023-04-13T17:43:37.412Z,1.43
2023-04-13T17:48:42.762Z,0.87
2023-04-13T17:53:46.059Z,1.87
2023-04-13T17:58:50.294Z,1.13
2023-04-13T18:03:53.598Z,1.07
2023-04-13T18:08:56.080Z,2.33
2023-04-13T18:14:00.598Z,1.00
2023-04-13T18:19:04.007Z,1.10
2023-04-13T18:24:07.837Z,0.80
2023-04-13T18:29:14.584Z,0.67
2023-04-13T18:34:17.198Z,0.97
2023-04-13T18:39:20.518Z,0.60
2023-04-13T18:44:25.203Z,0.77
2023-04-13T18:49:28.146Z,0.80
2023-04-13T18:54:33.152Z,0.97
2023-04-13T18:59:38.028Z,1.00
2023-04-13T19:04:40.439Z,1.10
2023-04-13T19:09:44.237Z,1.13
2023-04-13T19:14:51.159Z,1.40
2023-04-13T19:19:54.598Z,1.00
2023-04-13T19:24:58.672Z,1.10
2023-04-13T19:30:04.389Z,1.60
2023-04-13T19:35:10.730Z,2.17
2023-04-13T19:40:15.628Z,2.53
2023-04-13T19:45:20.652Z,1.93
2023-04-13T19:50:25.162Z,1.90
2023-04-13T19:55:28.899Z,1.83
2023-04-13T20:00:33.677Z,2.63
2023-04-13T20:05:39.758Z,5.50
2023-04-13T20:10:44.343Z,2.37
2023-04-13T20:15:51.475Z,1.30
2023-04-13T20:20:54.531Z,1.17
2023-04-13T20:25:57.526Z,0.90
2023-04-13T20:31:04.594Z,1.07
2023-04-13T20:36:07.198Z,0.90
2023-04-13T20:41:10.559Z,0.60
2023-04-13T20:46:14.465Z,0.70
2023-04-13T20:51:17.861Z,1.17
2023-04-13T20:56:23.984Z,1.00
2023-04-13T21:01:28.173Z,0.90
2023-04-13T21:06:30.455Z,0.83
2023-04-13T21:17:38.091Z,0.77
2023-04-13T21:22:40.442Z,0.77
2023-04-13T21:27:42.972Z,0.60
2023-04-13T21:32:46.699Z,0.77
2023-04-13T21:37:49.034Z,0.50
2023-04-13T21:42:51.308Z,0.50
2023-04-13T21:47:55.304Z,0.57
2023-04-13T21:52:57.701Z,0.37
2023-04-13T21:58:00.119Z,0.50
2023-04-13T22:03:09.388Z,0.77
2023-04-13T22:08:18.338Z,0.53
2023-04-13T22:13:20.945Z,0.80
2023-04-13T22:18:29.874Z,0.60
2023-04-13T22:23:38.672Z,0.50
2023-04-13T22:28:46.494Z,0.60
2023-04-13T22:33:50.589Z,0.20
2023-04-13T22:38:53.506Z,0.37
2023-04-13T22:43:55.791Z,0.40
2023-04-13T22:49:00.790Z,0.33
2023-04-13T22:54:03.055Z,0.50
2023-04-13T22:59:05.446Z,0.40
2023-04-13T23:04:09.434Z,0.40
2023-04-13T23:09:11.919Z,0.40
2023-04-13T23:14:17.430Z,0.87
2023-04-13T23:19:21.268Z,0.47
2023-04-13T23:24:23.226Z,0.43
2023-04-13T23:29:25.185Z,0.50
2023-04-13T23:34:28.616Z,0.43
2023-04-13T23:39:30.827Z,0.50
2023-04-13T23:44:32.731Z,0.60
2023-04-13T23:49:36.002Z,0.50
2023-04-13T23:54:37.968Z,0.50
2023-04-13T23:59:39.917Z,0.60
